Latest Weather Observations for Munglinup West

IDW60801

Issued at 12:35 pm WST Thursday 24 April 2014 (issued every 30 minutes, with the page automatically refreshed every 10 minutes)

About weather observations | Map of weather stations | Latest weather observations for WA | Other Formats
Station Details ID: 012044 Name: MUNGLINUP WEST Lat: -33.55 Lon: 120.70 Height: 220.0 m
Data from the previous 72 hours. | See also: Recent months at Munglinup West
Date/Time
WST
Temp
°C
App
Temp
°C
Dew
Point
Rel
Hum
%
Delta-T
°C
Wind Press
QNH
hPa
Press
MSL
hPa
Rain
since 9 am
mm
Dir
 
Spd
km/h
Gust
km/h
Spd
kts
Gust
kts
24/12:30pm 25.7 22.4 9.5 36 9.0 NE 17 26 9 14 1010.9 - 0.2
24/12:00pm 25.1 20.8 9.4 37 8.7 NNE 22 32 12 17 1011.7 1011.1 0.2
24/11:30am 24.6 21.1 10.8 42 7.8 NE 20 33 11 18 1012.5 - 0.2
24/11:00am 22.1 18.2 10.9 49 6.2 NE 22 33 12 18 1013.3 1012.7 0.0
24/10:30am 20.3 15.7 11.2 56 5.1 NE 26 33 14 18 1013.9 - 0.0
24/10:00am 19.7 14.8 11.2 58 4.7 ENE 28 37 15 20 1014.3 1013.8 0.0
24/09:30am 17.7 13.4 11.9 69 3.2 NE 26 37 14 20 1015.1 - 0.0
24/09:00am 16.9 12.7 13.6 81 1.9 ENE 28 37 15 20 1015.6 1015.0 0.0
24/08:30am 15.0 12.0 13.7 92 0.7 ENE 22 33 12 18 1016.0 - 0.0
24/08:00am 14.0 11.4 13.8 99 0.1 ENE 20 26 11 14 1016.2 1015.6 0.0
24/07:30am 12.5 10.1 12.5 100 0.0 ENE 17 26 9 14 1016.2 - 0.0
24/07:00am 11.8 9.1 11.8 100 0.0 ENE 17 22 9 12 1016.2 1015.6 0.0
24/06:30am 11.6 8.5 11.6 100 0.0 ENE 19 24 10 13 1016.3 - 0.0
24/06:00am 11.6 8.5 11.6 100 0.0 NE 19 24 10 13 1016.1 1015.5 0.0
24/05:30am 11.2 8.4 11.2 100 0.0 ENE 17 22 9 12 1016.1 - 0.0
24/05:00am 11.1 8.6 11.1 100 0.0 NE 15 19 8 10 1016.3 1015.7 0.0
24/04:30am 11.2 8.7 11.2 100 0.0 NE 15 19 8 10 1016.4 - 0.0
24/04:00am 11.0 8.9 11.0 100 0.0 NE 13 17 7 9 1016.4 1015.8 0.0
24/03:30am 11.0 8.9 11.0 100 0.0 NE 13 17 7 9 1016.5 - 0.0
24/03:00am 10.9 8.3 10.7 99 0.1 NE 15 19 8 10 1016.6 1016.0 0.0
24/02:30am 11.2 8.7 11.0 99 0.1 NE 15 19 8 10 1016.8 - 0.0
24/02:00am 11.0 8.8 10.8 99 0.1 NE 13 20 7 11 1017.2 1016.6 0.0
24/01:30am 10.7 8.4 10.4 98 0.2 ENE 13 17 7 9 1017.7 - 0.0
24/01:00am 11.2 9.0 10.9 98 0.2 ENE 13 19 7 10 1017.6 1017.0 0.0
24/12:30am 11.1 8.9 10.8 98 0.2 ENE 13 15 7 8 1017.6 - 0.0
24/12:00am 11.6 9.5 11.3 98 0.2 ENE 13 15 7 8 1017.9 1017.4 0.0
 
Date/Time
WST
Temp
°C
App
Temp
°C
Dew
Point
Rel
Hum
%
Delta-T
°C
Wind Press
QNH
hPa
Press
MSL
hPa
Rain
since 9 am
mm
Dir
 
Spd
km/h
Gust
km/h
Spd
kts
Gust
kts
23/11:30pm 11.4 9.6 10.9 97 0.3 ENE 11 13 6 7 1018.0 - 0.0
23/11:00pm 12.1 10.5 11.5 96 0.3 E 11 13 6 7 1018.0 1017.5 0.0
23/10:30pm 12.5 10.9 11.7 95 0.4 E 11 13 6 7 1018.0 - 0.0
23/10:00pm 12.6 11.0 11.7 94 0.5 E 11 13 6 7 1018.3 1017.8 0.0
23/09:30pm 13.0 11.1 11.9 93 0.6 ESE 13 17 7 9 1018.5 - 0.0
23/09:00pm 12.5 10.4 11.2 92 0.7 ESE 13 15 7 8 1018.4 1017.9 0.0
23/08:30pm 13.3 11.4 11.7 90 0.9 ESE 13 17 7 9 1018.5 - 0.0
23/08:00pm 13.3 11.4 11.7 90 0.9 ESE 13 15 7 8 1018.5 1018.0 0.0
23/07:30pm 13.4 11.7 11.3 87 1.1 ESE 11 15 6 8 1018.4 - 0.0
23/07:00pm 13.8 12.1 11.3 85 1.3 ESE 11 15 6 8 1018.1 1017.6 0.0
23/06:30pm 14.0 11.8 10.8 81 1.7 SE 13 15 7 8 1018.0 - 0.0
23/06:00pm 14.7 12.3 10.1 74 2.4 SE 13 15 7 8 1017.7 1017.1 0.0
23/05:30pm 16.0 13.6 10.1 68 3.1 SSE 13 17 7 9 1017.4 - 0.0
23/05:00pm 17.5 14.2 9.7 60 4.1 SSE 17 24 9 13 1017.2 1016.6 0.0
23/04:30pm 19.0 15.6 9.2 53 5.2 S 17 24 9 13 1017.0 - 0.0
23/04:00pm 19.8 16.7 8.8 49 5.8 S 15 22 8 12 1016.8 1016.2 0.0
23/03:30pm 21.3 18.0 9.5 47 6.4 S 17 26 9 14 1016.7 - 0.0
23/03:00pm 21.7 18.4 9.6 46 6.6 S 17 24 9 13 1016.5 1015.9 0.0
23/02:30pm 21.8 18.4 9.3 45 6.8 S 17 26 9 14 1016.6 - 0.0
23/02:00pm 22.4 19.7 10.2 46 6.7 S 15 24 8 13 1016.5 1015.9 0.0
23/01:30pm 22.5 20.4 8.2 40 7.6 S 9 19 5 10 1016.5 - 0.0
23/01:00pm 22.0 19.2 8.5 42 7.2 SSW 13 20 7 11 1016.8 1016.2 0.0
23/12:30pm 21.6 18.6 9.2 45 6.7 SSW 15 28 8 15 1017.1 - 0.0
23/12:00pm 21.5 19.6 10.6 50 6.0 SSW 11 22 6 12 1017.4 1016.8 0.0
23/11:30am 20.5 18.8 11.2 55 5.2 SW 11 19 6 10 1017.9 - 0.0
23/11:00am 19.8 18.8 11.0 57 4.8 S 7 15 4 8 1018.2 1017.7 0.0
23/10:30am 18.3 17.5 11.8 66 3.6 SW 7 13 4 7 1018.3 - 0.0
23/10:00am 18.5 17.9 12.3 67 3.5 S 7 13 4 7 1018.6 1018.1 0.0
23/09:30am 16.7 16.1 11.6 72 2.8 SW 6 9 3 5 1018.6 - 0.0
23/09:00am 16.0 15.9 10.7 71 2.8 W 2 6 1 3 1018.6 1018.1 0.0
23/08:30am 13.6 12.5 10.0 79 1.9 W 6 7 3 4 1018.5 - 0.0
23/08:00am 11.8 11.8 11.3 97 0.3 N 2 4 1 2 1018.1 1017.6 0.0
23/07:30am 8.9 7.5 8.8 99 0.0 NW 6 7 3 4 1018.2 - 0.0
23/07:00am 7.5 6.1 7.4 99 0.0 NNW 4 4 2 2 1017.8 1017.3 0.0
23/06:30am 6.4 4.4 6.1 98 0.1 NW 6 7 3 4 1017.9 - 0.0
23/06:00am 6.3 4.0 5.9 97 0.2 NNW 7 7 4 4 1017.7 1017.1 0.0
23/05:30am 6.8 5.2 6.2 96 0.3 W 4 6 2 3 1017.4 - 0.0
23/05:00am 6.3 4.9 5.6 95 0.3 W 2 4 1 2 1017.3 1016.7 0.0
23/04:30am 6.5 5.2 5.8 95 0.3 NNW 2 4 1 2 1017.1 - 0.0
23/04:00am 6.1 3.6 4.7 91 0.6 NNW 7 9 4 5 1016.9 1016.3 0.0
23/03:30am 7.2 5.0 5.3 88 0.9 S 6 7 3 4 1016.9 - 0.0
23/03:00am 8.0 6.0 6.3 89 0.8 ESE 6 6 3 3 1016.8 1016.2 0.0
23/02:30am 8.9 6.9 7.0 88 0.9 ESE 7 9 4 5 1016.7 - 0.0
23/02:00am 9.7 7.0 7.5 86 1.1 E 11 13 6 7 1017.1 1016.5 0.0
23/01:30am 9.5 6.8 7.4 87 1.0 E 11 11 6 6 1017.4 - 0.0
23/01:00am 10.4 8.3 8.3 87 1.0 ESE 9 9 5 5 1017.9 1017.4 0.0
23/12:30am 9.5 7.3 7.8 89 0.8 ESE 9 9 5 5 1017.9 - 0.0
23/12:00am 9.8 8.0 8.1 89 0.8 ESE 7 9 4 5 1018.0 1017.5 0.0
 
Date/Time
WST
Temp
°C
App
Temp
°C
Dew
Point
Rel
Hum
%
Delta-T
°C
Wind Press
QNH
hPa
Press
MSL
hPa
Rain
since 9 am
mm
Dir
 
Spd
km/h
Gust
km/h
Spd
kts
Gust
kts
22/11:30pm 9.9 8.7 8.0 88 0.9 ESE 4 6 2 3 1018.3 - 0.0
22/11:00pm 10.0 7.8 7.8 86 1.1 SW 9 11 5 6 1018.7 1018.2 0.0
22/10:30pm 11.3 9.1 9.4 88 1.0 ENE 11 15 6 8 1018.4 - 0.0
22/10:00pm 10.6 9.5 8.5 87 1.0 ENE 4 6 2 3 1018.7 1018.2 0.0
22/09:30pm 11.6 8.6 9.3 86 1.2 E 15 19 8 10 1018.5 - 0.0
22/09:00pm 11.8 8.8 9.4 85 1.2 E 15 19 8 10 1018.4 1017.9 0.0
22/08:30pm 12.0 8.5 8.8 81 1.6 E 17 19 9 10 1018.5 - 0.0
22/08:00pm 13.0 10.4 9.3 78 1.9 E 13 17 7 9 1018.7 1018.2 0.0
22/07:30pm 13.6 10.7 9.5 76 2.1 E 15 19 8 10 1018.6 - 0.0
22/07:00pm 13.7 10.9 8.7 72 2.5 ESE 13 15 7 8 1018.6 1018.1 0.0
22/06:30pm 14.3 11.2 8.7 69 2.9 ESE 15 19 8 10 1018.5 - 0.0
22/06:00pm 14.8 11.7 8.7 67 3.1 SE 15 17 8 9 1018.4 1017.9 0.0
22/05:30pm 16.2 13.1 8.7 61 3.9 SE 15 20 8 11 1018.2 - 0.0
22/05:00pm 18.0 14.1 8.8 55 4.8 SE 19 24 10 13 1018.2 1017.7 0.0
22/04:30pm 19.6 16.1 8.6 49 5.8 SSE 17 26 9 14 1018.3 - 0.0
22/04:00pm 22.3 20.1 7.7 39 7.7 W 9 19 5 10 1018.0 1017.5 0.0
22/03:30pm 22.7 19.4 4.7 31 9.0 W 11 20 6 11 1018.2 - 0.0
22/03:00pm 23.1 20.7 5.1 31 9.1 W 7 19 4 10 1018.3 1017.8 0.0
22/02:30pm 22.7 20.4 5.6 33 8.7 W 7 19 4 10 1018.4 - 0.0
22/02:00pm 22.3 20.0 5.7 34 8.4 WSW 7 17 4 9 1018.6 1018.1 0.0
22/01:30pm 21.2 18.9 5.9 37 7.7 W 7 11 4 6 1018.9 - 0.0
22/01:00pm 21.6 19.5 6.7 38 7.7 W 7 15 4 8 1019.3 1018.8 0.0
22/12:30pm 20.9 18.5 6.8 40 7.2 WNW 9 19 5 10 1019.9 - 0.0
22/12:00pm 20.7 18.3 7.0 41 7.0 NW 9 15 5 8 1020.5 1019.9 0.0
22/11:30am 20.2 17.5 7.2 43 6.7 WNW 11 19 6 10 1020.9 - 0.0
22/11:00am 19.7 17.5 7.8 46 6.2 WNW 9 15 5 8 1021.4 1020.8 0.0
22/10:30am 19.7 17.3 8.7 49 5.8 N 11 19 6 10 1021.8 - 0.0
22/10:00am 18.4 15.6 8.7 53 5.1 N 13 22 7 12 1022.1 1021.6 0.0
22/09:30am 17.6 14.2 9.2 58 4.4 N 17 24 9 13 1022.2 - 0.0
22/09:00am 16.0 12.8 10.1 68 3.1 N 17 22 9 12 1022.4 1021.9 0.4
22/08:30am 14.3 12.1 10.9 80 1.8 N 13 20 7 11 1022.6 - 0.4
22/08:00am 12.2 10.5 11.3 94 0.5 N 11 15 6 8 1022.6 1022.1 0.4
22/07:30am 10.5 9.3 10.2 98 0.2 N 7 11 4 6 1022.4 - 0.4
22/07:00am 8.8 6.8 8.5 98 0.1 N 9 9 5 5 1022.3 1021.8 0.4
22/06:30am 8.0 5.8 7.7 98 0.1 N 9 13 5 7 1022.1 - 0.4
22/06:00am 7.8 5.9 7.5 98 0.1 N 7 11 4 6 1021.9 1021.4 0.4
22/05:30am 7.5 5.5 7.2 98 0.1 N 7 9 4 5 1021.9 - 0.2
22/05:00am 8.0 6.1 7.7 98 0.1 N 7 11 4 6 1021.7 1021.1 0.2
22/04:30am 8.2 6.4 7.9 98 0.1 N 7 11 4 6 1021.3 - 0.2
22/04:00am 8.0 5.8 7.7 98 0.1 N 9 11 5 6 1021.1 1020.5 0.2
22/03:30am 7.9 5.6 7.6 98 0.1 NNE 9 11 5 6 1020.8 - 0.2
22/03:00am 8.1 5.9 7.7 97 0.2 N 9 11 5 6 1020.8 1020.2 0.2
22/02:30am 8.4 6.3 8.1 98 0.1 N 9 15 5 8 1021.1 - 0.2
22/02:00am 8.2 6.4 7.8 97 0.2 N 7 11 4 6 1021.2 1020.6 0.2
22/01:30am 8.4 6.2 8.0 97 0.2 N 9 11 5 6 1021.4 - 0.2
22/01:00am 8.3 6.5 7.9 97 0.2 N 7 9 4 5 1021.4 1020.8 0.2
22/12:30am 8.3 6.4 7.7 96 0.3 N 7 9 4 5 1021.5 - 0.2
22/12:00am 8.7 6.9 8.1 96 0.3 NE 7 9 4 5 1021.5 1020.9 0.2
 
Date/Time
WST
Temp
°C
App
Temp
°C
Dew
Point
Rel
Hum
%
Delta-T
°C
Wind Press
QNH
hPa
Press
MSL
hPa
Rain
since 9 am
mm
Dir
 
Spd
km/h
Gust
km/h
Spd
kts
Gust
kts
21/11:30pm 8.8 7.0 8.0 95 0.4 ENE 7 7 4 4 1021.2 - 0.2
21/11:00pm 9.2 7.5 8.4 95 0.4 ENE 7 9 4 5 1021.3 1020.7 0.2
21/10:30pm 8.9 7.1 7.8 93 0.5 E 7 7 4 4 1021.6 - 0.2
21/10:00pm 9.7 8.1 8.6 93 0.5 E 7 7 4 4 1021.7 1021.1 0.2
21/09:30pm 9.4 7.6 8.0 91 0.7 E 7 7 4 4 1021.8 - 0.2
21/09:00pm 10.1 8.5 8.2 88 0.9 ESE 6 7 3 4 1021.7 1021.1 0.2
21/08:30pm 10.5 8.9 8.8 89 0.8 ESE 7 9 4 5 1021.6 - 0.2
21/08:00pm 10.3 8.2 8.4 88 0.9 SE 9 9 5 5 1021.5 1020.9 0.2
21/07:30pm 10.6 9.0 8.7 88 0.9 ESE 7 9 4 5 1021.4 - 0.2
21/07:00pm 10.8 8.7 8.4 85 1.2 SE 9 9 5 5 1021.2 1020.6 0.2
21/06:30pm 11.6 9.6 8.5 81 1.5 SE 9 9 5 5 1020.9 - 0.2
21/06:00pm 12.9 11.4 8.4 74 2.3 SSE 6 7 3 4 1020.6 1020.0 0.2
21/05:30pm 14.4 12.5 9.2 71 2.7 S 9 15 5 8 1020.1 - 0.2
21/05:00pm 15.6 12.3 9.7 68 3.1 S 17 24 9 13 1019.9 1019.3 0.2
21/04:30pm 17.3 14.6 9.0 58 4.3 S 13 20 7 11 1019.5 - 0.2
21/04:00pm 17.6 14.0 8.2 54 4.8 S 17 26 9 14 1019.4 1018.9 0.2
21/03:30pm 17.8 14.1 8.1 53 5.0 SSW 17 28 9 15 1019.0 - 0.2
21/03:00pm 18.7 15.0 8.1 50 5.5 S 17 24 9 13 1018.7 1018.2 0.2
21/02:30pm 18.1 14.1 8.1 52 5.2 SSW 19 28 10 15 1018.6 - 0.2
21/02:00pm 18.8 15.0 9.0 53 5.2 SSW 19 30 10 16 1018.4 1017.9 0.2
21/01:30pm 18.3 15.3 9.4 56 4.7 S 15 28 8 15 1018.4 - 0.2
21/01:00pm 18.6 15.0 9.7 56 4.8 SSW 19 28 10 15 1018.3 1017.8 0.2

Other Formats:

Comma delimited format used in spreadsheet applications
http://www.bom.gov.au/fwo/IDW60801/IDW60801.95644.axf

JavaScript Object Notation format (JSON) in row-major order
http://www.bom.gov.au/fwo/IDW60801/IDW60801.95644.json